createdAt,value
2023-02-03T00:00:42.303Z,45.26
2023-02-03T00:03:11.776Z,45.26
2023-02-03T00:05:40.667Z,45.32
2023-02-03T00:08:09.915Z,45.21
2023-02-03T00:10:39.977Z,45.18
2023-02-03T00:13:09.726Z,45.17
2023-02-03T00:15:37.798Z,45.25
2023-02-03T00:18:05.907Z,45.24
2023-02-03T00:20:35.155Z,45.09
2023-02-03T00:23:06.458Z,45.17
2023-02-03T00:25:37.632Z,45.05
2023-02-03T00:28:06.036Z,44.99
2023-02-03T00:30:35.811Z,45.11
2023-02-03T00:33:04.694Z,45.19
2023-02-03T00:35:32.660Z,44.99
2023-02-03T00:38:01.988Z,45.09
2023-02-03T00:40:30.419Z,45.06
2023-02-03T00:43:00.940Z,44.94
2023-02-03T00:45:29.054Z,44.94
2023-02-03T00:47:57.000Z,45.01
2023-02-03T00:50:25.245Z,44.89
2023-02-03T00:52:53.365Z,45.14
2023-02-03T00:55:22.706Z,45.01
2023-02-03T00:57:50.620Z,44.96
2023-02-03T01:00:19.714Z,44.90
2023-02-03T01:02:48.445Z,44.99
2023-02-03T01:05:16.513Z,44.93
2023-02-03T01:07:44.429Z,44.87
2023-02-03T01:10:12.642Z,44.98
2023-02-03T01:12:41.961Z,44.84
2023-02-03T01:15:13.024Z,44.78
2023-02-03T01:17:41.025Z,44.80
2023-02-03T01:20:12.253Z,44.93
2023-02-03T01:22:40.268Z,45.01
2023-02-03T01:25:09.451Z,44.81
2023-02-03T01:27:37.455Z,44.86
2023-02-03T01:30:07.237Z,44.84
2023-02-03T01:32:37.471Z,44.87
2023-02-03T01:35:05.592Z,44.97
2023-02-03T01:37:33.684Z,44.93
2023-02-03T01:40:01.643Z,44.76
2023-02-03T01:42:33.727Z,44.89
2023-02-03T01:45:02.081Z,44.76
2023-02-03T01:47:35.263Z,44.92
2023-02-03T01:50:11.765Z,44.88
2023-02-03T01:52:43.127Z,44.77
2023-02-03T01:55:14.132Z,44.64
2023-02-03T01:57:46.831Z,45.26
2023-02-03T02:00:15.543Z,45.94
2023-02-03T02:02:47.485Z,45.87
2023-02-03T02:05:21.595Z,45.94
2023-02-03T02:07:50.093Z,46.04
2023-02-03T02:10:18.663Z,46.28
2023-02-03T02:12:50.013Z,46.08
2023-02-03T02:15:18.825Z,46.17
2023-02-03T02:18:07.568Z,46.18
2023-02-03T02:21:05.208Z,46.27
2023-02-03T02:24:09.575Z,46.16
2023-02-03T02:27:03.753Z,46.34
2023-02-03T02:30:19.545Z,46.52
2023-02-03T02:33:03.977Z,46.27
2023-02-03T02:35:45.631Z,46.21
2023-02-03T02:38:24.656Z,46.38
2023-02-03T02:40:57.983Z,46.26
2023-02-03T02:43:36.169Z,46.17
2023-02-03T02:46:11.241Z,46.35
2023-02-03T02:48:45.959Z,46.24
2023-02-03T02:51:16.541Z,46.23
2023-02-03T02:53:51.438Z,46.17
2023-02-03T02:56:20.737Z,46.13
2023-02-03T02:58:52.899Z,46.16
2023-02-03T03:01:20.989Z,46.11
2023-02-03T03:03:50.640Z,45.84
2023-02-03T03:06:23.285Z,45.92
2023-02-03T03:08:57.038Z,46.05
2023-02-03T03:11:26.977Z,45.81
2023-02-03T03:13:57.091Z,45.70
2023-02-03T03:16:27.586Z,45.87
2023-02-03T03:19:02.492Z,45.86
2023-02-03T03:21:36.080Z,45.78
2023-02-03T03:24:10.733Z,45.79
2023-02-03T03:26:45.037Z,45.64
2023-02-03T03:29:19.917Z,45.53
2023-02-03T03:31:48.051Z,45.51
2023-02-03T03:34:18.813Z,45.73
2023-02-03T03:36:49.885Z,45.60
2023-02-03T03:39:25.433Z,45.43
2023-02-03T03:42:01.972Z,45.80
2023-02-03T03:44:37.143Z,45.43
2023-02-03T03:47:11.667Z,45.51
2023-02-03T03:49:43.966Z,45.29
2023-02-03T03:52:13.903Z,45.37
2023-02-03T03:54:43.795Z,45.23
2023-02-03T03:57:17.772Z,45.33
2023-02-03T03:59:48.256Z,45.25
2023-02-03T04:02:18.524Z,45.37
2023-02-03T04:04:49.363Z,45.24
2023-02-03T04:07:17.426Z,45.22
2023-02-03T04:09:45.421Z,45.24
2023-02-03T04:12:23.186Z,45.42
2023-02-03T04:14:51.193Z,45.30
2023-02-03T04:17:20.187Z,45.28
2023-02-03T04:19:50.256Z,45.31
2023-02-03T04:22:18.271Z,45.36
2023-02-03T04:24:46.245Z,45.16
2023-02-03T04:27:14.313Z,45.03
2023-02-03T04:29:42.236Z,45.08
2023-02-03T04:32:10.417Z,44.98
2023-02-03T04:34:38.447Z,44.98
2023-02-03T04:37:07.814Z,45.12
2023-02-03T04:39:35.736Z,45.07
2023-02-03T04:42:03.711Z,44.94
2023-02-03T04:44:31.682Z,45.06
2023-02-03T04:46:59.621Z,44.99
2023-02-03T04:49:27.687Z,44.88
2023-02-03T04:51:55.595Z,44.98
2023-02-03T04:54:24.920Z,45.22
2023-02-03T04:56:52.887Z,45.06
2023-02-03T04:59:20.911Z,44.90
2023-02-03T05:01:48.824Z,44.98
2023-02-03T05:04:16.800Z,44.97
2023-02-03T05:06:44.935Z,44.90
2023-02-03T05:09:15.901Z,44.71
2023-02-03T05:11:45.245Z,44.71
2023-02-03T05:14:13.138Z,44.89
2023-02-03T05:16:41.200Z,44.90
2023-02-03T05:19:09.184Z,44.88
2023-02-03T05:21:37.227Z,44.89
2023-02-03T05:24:07.816Z,44.90
2023-02-03T05:26:36.455Z,44.94
2023-02-03T05:29:05.836Z,44.75
2023-02-03T05:31:34.770Z,44.61
2023-02-03T05:34:02.852Z,44.59
2023-02-03T05:36:30.756Z,44.72
2023-02-03T05:39:01.194Z,44.62
2023-02-03T05:41:46.472Z,44.62
2023-02-03T05:44:15.858Z,44.43
2023-02-03T05:46:44.017Z,44.55
2023-02-03T05:49:12.225Z,44.42
2023-02-03T05:51:40.809Z,44.41
2023-02-03T05:54:09.917Z,44.42
2023-02-03T05:56:38.200Z,44.40
2023-02-03T05:59:09.266Z,44.27
2023-02-03T06:01:41.457Z,44.35
2023-02-03T06:04:09.716Z,44.17
2023-02-03T06:06:37.725Z,44.21
2023-02-03T06:09:08.387Z,44.19
2023-02-03T06:11:37.645Z,44.03
2023-02-03T06:14:05.946Z,44.08
2023-02-03T06:16:36.526Z,44.22
2023-02-03T06:19:05.836Z,44.01
2023-02-03T06:21:33.776Z,44.02
2023-02-03T06:24:01.777Z,44.02
2023-02-03T06:26:29.665Z,43.88
2023-02-03T06:28:57.609Z,43.92
2023-02-03T06:31:26.876Z,43.71
2023-02-03T06:33:57.250Z,43.67
2023-02-03T06:36:26.581Z,43.80
2023-02-03T06:38:54.540Z,43.77
2023-02-03T06:41:27.458Z,43.75
2023-02-03T06:43:55.556Z,43.85
2023-02-03T06:46:23.558Z,43.61
2023-02-03T06:48:51.532Z,43.77
2023-02-03T06:51:19.445Z,43.72
2023-02-03T06:53:48.799Z,43.65
2023-02-03T06:56:16.743Z,43.58
2023-02-03T06:58:44.709Z,43.56
2023-02-03T07:01:12.655Z,43.37
2023-02-03T07:03:40.670Z,43.38
2023-02-03T07:06:08.904Z,43.41
2023-02-03T07:08:36.860Z,43.42
2023-02-03T07:11:06.211Z,43.31
2023-02-03T07:13:34.209Z,43.27
2023-02-03T07:16:02.175Z,43.21
2023-02-03T07:18:46.313Z,43.13
2023-02-03T07:21:16.192Z,43.14
2023-02-03T07:23:44.700Z,43.20
2023-02-03T07:26:14.088Z,43.14
2023-02-03T07:28:42.721Z,43.44
2023-02-03T07:31:11.146Z,43.10
2023-02-03T07:33:39.685Z,43.09
2023-02-03T07:36:09.081Z,43.10
2023-02-03T07:38:38.119Z,42.66
2023-02-03T07:41:06.263Z,43.16
2023-02-03T07:43:35.733Z,43.18
2023-02-03T07:46:03.836Z,43.08
2023-02-03T07:48:31.908Z,43.42
2023-02-03T07:50:59.855Z,43.69
2023-02-03T07:53:27.889Z,43.64
2023-02-03T07:56:01.198Z,43.69
2023-02-03T07:58:29.461Z,43.61
2023-02-03T08:00:59.752Z,43.70
2023-02-03T08:03:30.505Z,43.57
2023-02-03T08:05:58.527Z,43.50
2023-02-03T08:08:29.022Z,43.53
2023-02-03T08:10:57.208Z,43.45
2023-02-03T08:13:25.196Z,43.64
2023-02-03T08:15:53.200Z,43.61
2023-02-03T08:18:22.521Z,43.50
2023-02-03T08:20:50.785Z,43.58
2023-02-03T08:23:19.935Z,43.49
2023-02-03T08:25:52.439Z,43.40
2023-02-03T08:28:20.667Z,43.51
2023-02-03T08:30:48.805Z,43.45
2023-02-03T08:33:16.811Z,43.54
2023-02-03T08:35:48.492Z,43.59
2023-02-03T08:38:16.778Z,43.59
2023-02-03T08:40:44.736Z,43.68
2023-02-03T08:43:12.785Z,43.55
2023-02-03T08:45:41.281Z,43.86
2023-02-03T08:48:09.434Z,43.80
2023-02-03T08:50:37.509Z,44.09
2023-02-03T08:53:06.848Z,43.98
2023-02-03T08:55:34.848Z,43.96
2023-02-03T08:58:02.836Z,43.79
2023-02-03T09:00:32.859Z,44.01
2023-02-03T09:03:00.872Z,44.03
2023-02-03T09:05:32.352Z,44.07
2023-02-03T09:08:00.418Z,44.05
2023-02-03T09:10:30.562Z,44.23
2023-02-03T09:12:58.690Z,44.08
2023-02-03T09:15:28.857Z,44.09
2023-02-03T09:17:57.945Z,44.29
2023-02-03T09:20:26.533Z,44.18
2023-02-03T09:22:55.475Z,44.23
2023-02-03T09:25:26.115Z,44.25
2023-02-03T09:27:55.633Z,44.35
2023-02-03T09:30:23.829Z,44.51
2023-02-03T09:32:54.459Z,44.42
2023-02-03T09:35:22.651Z,44.63
2023-02-03T09:37:50.850Z,44.71
2023-02-03T09:40:23.620Z,44.50
2023-02-03T09:43:10.400Z,44.64
2023-02-03T09:45:38.538Z,44.56
2023-02-03T09:48:15.435Z,44.55
2023-02-03T09:50:45.577Z,44.57
2023-02-03T09:53:26.285Z,44.54
2023-02-03T09:55:55.098Z,44.67
2023-02-03T09:58:25.024Z,44.65
2023-02-03T10:00:55.287Z,44.82
2023-02-03T10:03:30.995Z,44.90
2023-02-03T10:06:10.591Z,44.88
2023-02-03T10:08:52.764Z,45.03
2023-02-03T10:11:39.422Z,44.94
2023-02-03T10:14:24.155Z,44.98
2023-02-03T10:17:03.833Z,44.98
2023-02-03T10:19:42.160Z,45.01
2023-02-03T10:22:15.666Z,45.08
2023-02-03T10:24:50.812Z,45.23
2023-02-03T10:27:21.588Z,45.35
2023-02-03T10:29:59.191Z,45.22
2023-02-03T10:32:28.929Z,45.40
2023-02-03T10:34:57.671Z,44.86
2023-02-03T10:37:33.667Z,45.34
2023-02-03T10:40:03.599Z,45.76
2023-02-03T10:42:53.251Z,45.81
2023-02-03T10:45:22.677Z,45.60
2023-02-03T10:47:54.856Z,45.69
2023-02-03T10:50:25.744Z,45.68
2023-02-03T10:53:24.322Z,45.69
2023-02-03T10:56:02.445Z,45.86
2023-02-03T10:58:33.465Z,45.57
2023-02-03T11:01:11.614Z,45.72
2023-02-03T11:03:42.248Z,45.56
2023-02-03T11:06:13.022Z,45.76
2023-02-03T11:08:42.878Z,45.73
2023-02-03T11:11:15.785Z,45.59
2023-02-03T11:13:43.824Z,45.65
2023-02-03T11:16:16.921Z,45.63
2023-02-03T11:18:53.385Z,46.04
2023-02-03T11:21:23.254Z,46.18
2023-02-03T11:24:12.011Z,46.33
2023-02-03T11:26:46.474Z,46.40
2023-02-03T11:29:22.222Z,46.43
2023-02-03T11:31:55.384Z,46.37
2023-02-03T11:34:28.292Z,46.29
2023-02-03T11:36:56.768Z,46.37
2023-02-03T11:39:30.015Z,46.50
2023-02-03T11:41:58.333Z,46.57
2023-02-03T11:44:29.414Z,46.52
2023-02-03T11:47:03.546Z,46.70
2023-02-03T11:50:19.479Z,46.69
2023-02-03T11:53:23.016Z,44.23
2023-02-03T11:56:07.005Z,45.41
2023-02-03T11:58:53.261Z,46.48
2023-02-03T12:01:35.099Z,46.78
2023-02-03T12:04:41.487Z,46.71
2023-02-03T12:07:28.724Z,46.79
2023-02-03T12:10:03.728Z,46.59
2023-02-03T12:12:56.046Z,46.58
2023-02-03T12:15:55.178Z,46.63
2023-02-03T12:18:34.877Z,46.75
2023-02-03T12:21:15.600Z,46.79
2023-02-03T12:23:57.600Z,46.68
2023-02-03T12:26:35.741Z,46.65
2023-02-03T12:29:10.725Z,46.59
2023-02-03T12:31:44.138Z,46.68
2023-02-03T12:34:19.435Z,46.90
2023-02-03T12:36:53.490Z,46.64
2023-02-03T12:39:29.627Z,46.94
2023-02-03T12:42:01.773Z,46.96
2023-02-03T12:44:36.612Z,46.85
2023-02-03T12:47:09.018Z,47.03
2023-02-03T12:49:43.267Z,46.97
2023-02-03T12:52:22.464Z,46.97
2023-02-03T12:54:58.438Z,47.03
2023-02-03T12:57:34.103Z,47.01
2023-02-03T13:00:15.817Z,47.02
2023-02-03T13:02:54.109Z,47.04
2023-02-03T13:05:29.810Z,47.21
2023-02-03T13:08:09.831Z,47.18
2023-02-03T13:10:44.432Z,47.33
2023-02-03T13:13:19.062Z,46.62
2023-02-03T13:15:52.584Z,46.61
2023-02-03T13:18:28.187Z,46.89
2023-02-03T13:20:56.883Z,47.26
2023-02-03T13:23:26.856Z,47.04
2023-02-03T13:26:12.748Z,47.16
2023-02-03T13:28:57.319Z,47.29
2023-02-03T13:31:36.703Z,47.06
2023-02-03T13:34:30.971Z,47.05
2023-02-03T13:37:27.312Z,47.14
2023-02-03T13:40:15.024Z,47.05
2023-02-03T13:42:46.885Z,47.07
2023-02-03T13:45:23.687Z,47.01
2023-02-03T13:47:54.729Z,47.03
2023-02-03T13:50:26.118Z,47.06
2023-02-03T13:52:58.595Z,47.08
2023-02-03T13:55:36.579Z,46.69
2023-02-03T13:58:19.678Z,46.69
2023-02-03T14:01:22.891Z,46.71
2023-02-03T14:03:54.297Z,45.27
2023-02-03T14:07:01.728Z,46.82
2023-02-03T14:09:38.610Z,47.05
2023-02-03T14:12:36.396Z,47.39
2023-02-03T14:15:23.009Z,47.17
2023-02-03T14:18:03.096Z,46.87
2023-02-03T14:20:52.278Z,46.92
2023-02-03T14:23:28.232Z,46.70
2023-02-03T14:25:59.522Z,46.59
2023-02-03T14:28:40.146Z,46.28
2023-02-03T14:31:16.088Z,46.43
2023-02-03T14:34:13.098Z,46.36
2023-02-03T14:36:53.079Z,45.76
2023-02-03T14:40:17.823Z,45.88
2023-02-03T14:43:18.870Z,46.65
2023-02-03T14:46:04.822Z,46.70
2023-02-03T14:48:50.400Z,46.73
2023-02-03T14:51:34.112Z,46.72
2023-02-03T14:54:16.077Z,46.56
2023-02-03T14:57:06.643Z,46.44
2023-02-03T14:59:40.758Z,46.44
2023-02-03T15:02:16.029Z,46.42
2023-02-03T15:04:45.727Z,46.48
2023-02-03T15:07:44.986Z,46.43
2023-02-03T15:10:16.073Z,46.36
2023-02-03T15:12:49.574Z,46.30
2023-02-03T15:15:27.187Z,46.30
2023-02-03T15:17:59.567Z,46.05
2023-02-03T15:20:34.198Z,46.08
2023-02-03T15:23:03.064Z,46.18
2023-02-03T15:25:33.728Z,46.38
2023-02-03T15:28:17.042Z,46.47
2023-02-03T15:30:45.662Z,46.52
2023-02-03T15:33:18.129Z,46.40
2023-02-03T15:35:49.586Z,46.45
2023-02-03T15:38:23.605Z,46.20
2023-02-03T15:40:57.796Z,46.26
2023-02-03T15:43:32.787Z,46.54
2023-02-03T15:46:11.626Z,46.89
2023-02-03T15:48:45.766Z,47.02
2023-02-03T15:51:18.474Z,47.01
2023-02-03T15:53:53.203Z,47.13
2023-02-03T15:56:30.389Z,47.02
2023-02-03T15:58:59.611Z,46.93
2023-02-03T16:01:28.239Z,46.78
2023-02-03T16:04:00.206Z,46.41
2023-02-03T16:06:35.819Z,47.03
2023-02-03T16:09:06.953Z,47.58
2023-02-03T16:11:36.750Z,47.88
2023-02-03T16:14:06.849Z,47.09
2023-02-03T16:16:38.992Z,46.54
2023-02-03T16:19:14.922Z,47.32
2023-02-03T16:21:54.183Z,48.05
2023-02-03T16:24:38.631Z,48.02
2023-02-03T16:27:34.840Z,48.22
2023-02-03T16:30:42.159Z,47.87
2023-02-03T16:33:35.655Z,48.46
2023-02-03T16:36:29.597Z,48.30
2023-02-03T16:39:16.458Z,48.77
2023-02-03T16:42:01.917Z,48.44
2023-02-03T16:44:47.037Z,48.40
2023-02-03T16:47:42.367Z,48.14
2023-02-03T16:50:38.817Z,48.54
2023-02-03T16:53:14.817Z,48.46
2023-02-03T16:55:43.674Z,48.39
2023-02-03T16:58:12.624Z,48.19
2023-02-03T17:00:42.010Z,46.48
2023-02-03T17:03:12.894Z,46.13
2023-02-03T17:05:41.923Z,47.26
2023-02-03T17:08:14.942Z,48.62
2023-02-03T17:10:44.492Z,48.86
2023-02-03T17:13:13.166Z,48.75
2023-02-03T17:15:42.559Z,48.67
2023-02-03T17:18:10.550Z,48.41
2023-02-03T17:20:38.714Z,48.39
2023-02-03T17:23:06.746Z,48.40
2023-02-03T17:25:37.148Z,48.34
2023-02-03T17:28:05.804Z,48.31
2023-02-03T17:30:35.213Z,48.39
2023-02-03T17:33:07.965Z,48.15
2023-02-03T17:35:36.163Z,48.16
2023-02-03T17:38:04.046Z,48.19
2023-02-03T17:54:24.963Z,47.79
2023-02-03T17:56:52.970Z,47.75
2023-02-03T17:59:22.403Z,47.67
2023-02-03T18:01:50.414Z,47.98
2023-02-03T18:04:18.408Z,47.85
2023-02-03T18:06:46.525Z,48.02
2023-02-03T18:09:16.625Z,47.80
2023-02-03T18:11:45.817Z,47.86
2023-02-03T18:14:14.994Z,47.78
2023-02-03T18:16:45.215Z,47.85
2023-02-03T18:19:15.660Z,47.68
2023-02-03T18:21:44.404Z,48.02
2023-02-03T18:24:14.121Z,47.57
2023-02-03T18:26:49.749Z,47.84
2023-02-03T18:29:18.286Z,47.74
2023-02-03T18:31:47.728Z,47.69
2023-02-03T18:34:16.856Z,47.73
2023-02-03T18:36:44.936Z,47.77
2023-02-03T18:39:14.398Z,47.63
2023-02-03T18:41:42.462Z,47.68
2023-02-03T18:44:10.763Z,47.53
2023-02-03T18:46:38.782Z,47.58
2023-02-03T18:49:12.937Z,47.47
2023-02-03T18:51:41.014Z,47.48
2023-02-03T18:54:09.010Z,47.32
2023-02-03T18:56:37.149Z,47.54
2023-02-03T18:59:08.416Z,47.22
2023-02-03T19:01:37.165Z,47.44
2023-02-03T19:04:09.448Z,46.73
2023-02-03T19:06:37.475Z,47.83
2023-02-03T19:09:06.871Z,47.93
2023-02-03T19:11:35.389Z,47.80
2023-02-03T19:14:03.657Z,48.02
2023-02-03T19:16:31.830Z,48.06
2023-02-03T19:18:59.885Z,48.05
2023-02-03T19:21:29.227Z,47.55
2023-02-03T19:23:57.232Z,47.71
2023-02-03T19:26:28.208Z,47.54
2023-02-03T19:28:56.823Z,47.66
2023-02-03T19:31:27.842Z,47.44
2023-02-03T19:33:58.820Z,47.48
2023-02-03T19:36:29.298Z,47.55
2023-02-03T19:38:57.986Z,47.41
2023-02-03T19:41:26.468Z,47.36
2023-02-03T19:43:54.563Z,47.32
2023-02-03T19:46:22.705Z,47.22
2023-02-03T19:48:51.006Z,47.04
2023-02-03T19:51:19.191Z,47.18
2023-02-03T19:53:48.601Z,47.02
2023-02-03T19:56:16.613Z,47.08
2023-02-03T19:58:46.018Z,46.94
2023-02-03T20:01:14.065Z,46.88
2023-02-03T20:03:43.871Z,46.42
2023-02-03T20:06:11.955Z,46.46
2023-02-03T20:08:39.956Z,46.50
2023-02-03T20:11:09.417Z,46.00
2023-02-03T20:13:37.616Z,45.81
2023-02-03T20:16:06.122Z,46.15
2023-02-03T20:18:34.114Z,45.97
2023-02-03T20:21:02.027Z,45.69
2023-02-03T20:23:30.062Z,45.59
2023-02-03T20:25:58.466Z,45.65
2023-02-03T20:28:29.242Z,45.55
2023-02-03T20:30:59.842Z,45.77
2023-02-03T20:33:29.642Z,45.73
2023-02-03T20:35:58.389Z,45.54
2023-02-03T20:38:29.061Z,45.61
2023-02-03T20:40:57.403Z,45.80
2023-02-03T20:43:28.829Z,45.57
2023-02-03T20:45:56.856Z,45.44
2023-02-03T20:48:25.674Z,45.48
2023-02-03T20:50:53.981Z,45.65
2023-02-03T20:53:24.032Z,45.53
2023-02-03T20:55:52.471Z,45.44
2023-02-03T20:58:24.330Z,45.28
2023-02-03T21:00:57.267Z,45.33
2023-02-03T21:03:43.991Z,45.00
2023-02-03T21:06:16.685Z,45.07
2023-02-03T21:08:45.541Z,45.37
2023-02-03T21:11:15.127Z,45.18
2023-02-03T21:13:45.354Z,45.20
2023-02-03T21:16:18.496Z,45.21
2023-02-03T21:18:50.456Z,44.88
2023-02-03T21:21:24.894Z,45.07
2023-02-03T21:23:53.969Z,45.15
2023-02-03T21:26:26.856Z,44.92
2023-02-03T21:28:56.478Z,44.92
2023-02-03T21:31:29.005Z,44.74
2023-02-03T21:33:58.496Z,44.91
2023-02-03T21:36:28.950Z,44.53
2023-02-03T21:38:59.194Z,44.73
2023-02-03T21:41:31.934Z,45.00
2023-02-03T21:44:01.116Z,44.66
2023-02-03T21:46:33.756Z,44.53
2023-02-03T21:49:03.136Z,44.92
2023-02-03T21:51:34.191Z,44.95
2023-02-03T21:54:03.948Z,44.41
2023-02-03T21:56:39.665Z,44.78
2023-02-03T21:59:16.364Z,44.35
2023-02-03T22:01:45.852Z,44.27
2023-02-03T22:04:14.194Z,44.36
2023-02-03T22:06:44.751Z,44.42
2023-02-03T22:09:13.885Z,44.21
2023-02-03T22:11:42.343Z,44.47
2023-02-03T22:14:10.411Z,44.05
2023-02-03T22:16:38.391Z,44.08
2023-02-03T22:19:07.951Z,44.23
2023-02-03T22:21:36.135Z,44.25
2023-02-03T22:24:04.207Z,44.09
2023-02-03T22:26:32.289Z,44.33
2023-02-03T22:29:00.238Z,43.96
2023-02-03T22:31:28.403Z,44.01
2023-02-03T22:33:59.376Z,43.88
2023-02-03T22:36:28.756Z,44.08
2023-02-03T22:38:56.686Z,43.90
2023-02-03T22:41:24.674Z,43.86
2023-02-03T22:43:52.618Z,43.85
2023-02-03T22:46:20.644Z,43.75
2023-02-03T22:48:48.695Z,43.99
2023-02-03T22:51:19.625Z,44.01
2023-02-03T22:53:49.227Z,43.67
2023-02-03T22:56:17.155Z,43.71
2023-02-03T22:58:45.115Z,43.99
2023-02-03T23:01:13.014Z,43.70
2023-02-03T23:03:40.996Z,43.58
2023-02-03T23:06:09.053Z,43.60
2023-02-03T23:08:37.041Z,43.75
2023-02-03T23:11:06.649Z,43.54
2023-02-03T23:13:34.696Z,43.54
2023-02-03T23:16:02.794Z,43.81
2023-02-03T23:18:30.760Z,43.54
2023-02-03T23:20:58.701Z,43.34
2023-02-03T23:23:26.683Z,43.69
2023-02-03T23:25:54.593Z,43.43
2023-02-03T23:28:28.979Z,43.66
2023-02-03T23:30:57.045Z,43.56
2023-02-03T23:33:27.985Z,43.36
2023-02-03T23:35:55.558Z,43.45
2023-02-03T23:38:23.433Z,43.76
2023-02-03T23:40:51.399Z,43.55
2023-02-03T23:43:19.368Z,43.33
2023-02-03T23:45:48.702Z,43.65
2023-02-03T23:48:17.730Z,43.47
2023-02-03T23:50:45.748Z,43.32
2023-02-03T23:53:13.667Z,43.51
2023-02-03T23:55:41.604Z,43.45
2023-02-03T23:58:11.210Z,43.33
